Kezdőlap
METAR-TAF:

METAR-TAF

Repülőterek :

Municipal_Airport

Cherokee, Iowa, Amerikai Egyesült Államok

földrajzi szélesség: 42-43-54N, földrajzi hosszúság: 095-33-21W, magasság: 374 m

Jelenlegi meteorológiai megfigyelések

A jelentés 21 perccel ezelõtt készült, 13:55 UTC
Szélcsend
Hőmérséklet -1°C
Páratartalom 100%
Légköri nyomás 1028 hPa
Látótávolság: 16.1 km
Borult 11000 lábon

METAR: KCKP 041355Z AUTO 00000KT 10SM OVC110 M01/M01 A3037 RMK AO2 T10071012

Idő: 08:16 (14:16 UTC)


TAF: hiányzik

Meteorológiai megfigyelések és előrejelzések több, mint 4000 repülőtéren (METAR és TAF jelentéseket).

A térképen piros és sárga pontok jelzik az elérhető meteorológiai állomásokat.

Mozgassa az egeret a pont fölött, hogy megjelenjen az állomás neve.

Azután kattintson az időjárási megfigyelések és előrejelzések megtekintéséhez.

A térkép megváltoztatása: kattintson a fekete keresztel jelölt zöld gombra ráközelítéshez, a vonallal jelölt zöld gombra távolításhoz, vagy a zöld nyilakra a szomszédos térképek eléréséhez.


METAR-TAF: